sensor_id;sensor_type;location;lat;lon;timestamp;P1;durP1;ratioP1;P2;durP2;ratioP2
81841;SDS011;71284;50.918;7.092;2023-11-21T00:02:11;7.53;;;2.92;;
81841;SDS011;71284;50.918;7.092;2023-11-21T00:04:38;7.82;;;2.90;;
81841;SDS011;71284;50.918;7.092;2023-11-21T00:07:04;4.10;;;3.80;;
81841;SDS011;71284;50.918;7.092;2023-11-21T00:09:31;5.30;;;4.00;;
81841;SDS011;71284;50.918;7.092;2023-11-21T00:11:58;10.20;;;5.03;;
81841;SDS011;71284;50.918;7.092;2023-11-21T00:14:25;10.77;;;4.57;;
81841;SDS011;71284;50.918;7.092;2023-11-21T00:16:52;4.25;;;3.75;;
81841;SDS011;71284;50.918;7.092;2023-11-21T00:19:18;4.63;;;3.43;;
81841;SDS011;71284;50.918;7.092;2023-11-21T00:21:45;4.45;;;3.15;;
81841;SDS011;71284;50.918;7.092;2023-11-21T00:24:11;5.63;;;4.10;;
81841;SDS011;71284;50.918;7.092;2023-11-21T00:26:38;2.90;;;2.70;;
81841;SDS011;71284;50.918;7.092;2023-11-21T00:29:05;4.60;;;3.40;;
81841;SDS011;71284;50.918;7.092;2023-11-21T00:31:34;6.15;;;3.92;;
81841;SDS011;71284;50.918;7.092;2023-11-21T00:34:03;6.68;;;4.25;;
81841;SDS011;71284;50.918;7.092;2023-11-21T00:36:29;9.10;;;4.33;;
81841;SDS011;71284;50.918;7.092;2023-11-21T00:38:56;7.95;;;4.35;;
81841;SDS011;71284;50.918;7.092;2023-11-21T00:41:23;8.27;;;4.00;;
81841;SDS011;71284;50.918;7.092;2023-11-21T00:43:49;5.03;;;4.50;;
81841;SDS011;71284;50.918;7.092;2023-11-21T00:46:16;9.48;;;4.05;;
81841;SDS011;71284;50.918;7.092;2023-11-21T00:48:42;4.50;;;4.10;;
81841;SDS011;71284;50.918;7.092;2023-11-21T00:51:09;4.97;;;4.22;;
81841;SDS011;71284;50.918;7.092;2023-11-21T00:53:36;4.97;;;3.70;;
81841;SDS011;71284;50.918;7.092;2023-11-21T00:56:02;6.90;;;4.47;;
81841;SDS011;71284;50.918;7.092;2023-11-21T00:58:29;5.43;;;4.72;;
81841;SDS011;71284;50.918;7.092;2023-11-21T01:00:55;6.23;;;4.53;;
81841;SDS011;71284;50.918;7.092;2023-11-21T01:03:22;7.80;;;4.78;;
81841;SDS011;71284;50.918;7.092;2023-11-21T01:05:49;9.35;;;4.85;;
81841;SDS011;71284;50.918;7.092;2023-11-21T01:08:15;6.93;;;4.07;;
81841;SDS011;71284;50.918;7.092;2023-11-21T01:10:42;6.00;;;4.53;;
81841;SDS011;71284;50.918;7.092;2023-11-21T01:13:08;4.60;;;3.95;;
81841;SDS011;71284;50.918;7.092;2023-11-21T01:15:35;6.80;;;4.50;;
81841;SDS011;71284;50.918;7.092;2023-11-21T01:18:02;10.93;;;4.15;;
81841;SDS011;71284;50.918;7.092;2023-11-21T01:20:28;13.40;;;4.82;;
81841;SDS011;71284;50.918;7.092;2023-11-21T01:22:55;9.85;;;5.30;;
81841;SDS011;71284;50.918;7.092;2023-11-21T01:25:21;6.87;;;4.85;;
81841;SDS011;71284;50.918;7.092;2023-11-21T01:27:48;4.78;;;4.30;;
81841;SDS011;71284;50.918;7.092;2023-11-21T01:30:15;8.20;;;5.68;;
81841;SDS011;71284;50.918;7.092;2023-11-21T01:32:41;10.82;;;5.45;;
81841;SDS011;71284;50.918;7.092;2023-11-21T01:35:08;6.72;;;4.00;;
81841;SDS011;71284;50.918;7.092;2023-11-21T01:37:34;9.23;;;5.15;;
81841;SDS011;71284;50.918;7.092;2023-11-21T01:40:01;5.95;;;4.55;;
81841;SDS011;71284;50.918;7.092;2023-11-21T01:45:00;7.40;;;4.55;;
81841;SDS011;71284;50.918;7.092;2023-11-21T01:47:27;5.87;;;3.90;;
81841;SDS011;71284;50.918;7.092;2023-11-21T01:49:54;4.47;;;4.07;;
81841;SDS011;71284;50.918;7.092;2023-11-21T01:52:20;4.87;;;4.32;;
81841;SDS011;71284;50.918;7.092;2023-11-21T01:54:47;8.38;;;4.43;;
81841;SDS011;71284;50.918;7.092;2023-11-21T01:57:14;8.25;;;4.85;;
81841;SDS011;71284;50.918;7.092;2023-11-21T01:59:40;5.18;;;3.50;;
81841;SDS011;71284;50.918;7.092;2023-11-21T02:02:07;6.75;;;3.85;;
81841;SDS011;71284;50.918;7.092;2023-11-21T02:04:33;11.10;;;5.18;;
81841;SDS011;71284;50.918;7.092;2023-11-21T02:07:00;4.78;;;4.22;;
81841;SDS011;71284;50.918;7.092;2023-11-21T02:09:27;9.45;;;5.15;;
81841;SDS011;71284;50.918;7.092;2023-11-21T02:11:53;4.78;;;4.37;;
81841;SDS011;71284;50.918;7.092;2023-11-21T02:14:20;10.07;;;4.97;;
81841;SDS011;71284;50.918;7.092;2023-11-21T02:16:46;13.75;;;5.60;;
81841;SDS011;71284;50.918;7.092;2023-11-21T02:19:13;11.23;;;5.45;;
81841;SDS011;71284;50.918;7.092;2023-11-21T02:21:39;18.75;;;6.85;;
81841;SDS011;71284;50.918;7.092;2023-11-21T02:24:06;7.85;;;5.40;;
81841;SDS011;71284;50.918;7.092;2023-11-21T02:26:33;10.10;;;5.93;;
81841;SDS011;71284;50.918;7.092;2023-11-21T02:29:00;12.95;;;5.55;;
81841;SDS011;71284;50.918;7.092;2023-11-21T02:31:27;10.05;;;5.68;;
81841;SDS011;71284;50.918;7.092;2023-11-21T02:33:53;8.55;;;5.53;;
81841;SDS011;71284;50.918;7.092;2023-11-21T02:36:20;10.80;;;5.70;;
81841;SDS011;71284;50.918;7.092;2023-11-21T02:38:46;8.05;;;5.45;;
81841;SDS011;71284;50.918;7.092;2023-11-21T02:41:13;6.07;;;4.85;;
81841;SDS011;71284;50.918;7.092;2023-11-21T02:43:39;6.95;;;6.18;;
81841;SDS011;71284;50.918;7.092;2023-11-21T02:46:06;7.50;;;4.50;;
81841;SDS011;71284;50.918;7.092;2023-11-21T02:48:33;10.38;;;5.97;;
81841;SDS011;71284;50.918;7.092;2023-11-21T02:50:59;6.40;;;5.80;;
81841;SDS011;71284;50.918;7.092;2023-11-21T02:53:26;5.57;;;5.05;;
81841;SDS011;71284;50.918;7.092;2023-11-21T02:55:52;6.60;;;5.60;;
81841;SDS011;71284;50.918;7.092;2023-11-21T02:58:19;13.60;;;5.43;;
81841;SDS011;71284;50.918;7.092;2023-11-21T03:00:46;14.73;;;5.65;;
81841;SDS011;71284;50.918;7.092;2023-11-21T03:03:12;12.60;;;5.82;;
81841;SDS011;71284;50.918;7.092;2023-11-21T03:05:39;8.18;;;4.82;;
81841;SDS011;71284;50.918;7.092;2023-11-21T03:08:05;8.10;;;5.60;;
81841;SDS011;71284;50.918;7.092;2023-11-21T03:10:32;8.98;;;4.97;;
81841;SDS011;71284;50.918;7.092;2023-11-21T03:12:59;7.65;;;4.93;;
81841;SDS011;71284;50.918;7.092;2023-11-21T03:15:25;7.93;;;5.43;;
81841;SDS011;71284;50.918;7.092;2023-11-21T03:17:52;6.87;;;5.43;;
81841;SDS011;71284;50.918;7.092;2023-11-21T03:20:18;8.80;;;5.82;;
81841;SDS011;71284;50.918;7.092;2023-11-21T03:22:45;9.18;;;5.70;;
81841;SDS011;71284;50.918;7.092;2023-11-21T03:25:12;11.20;;;5.40;;
81841;SDS011;71284;50.918;7.092;2023-11-21T03:27:38;8.75;;;5.95;;
81841;SDS011;71284;50.918;7.092;2023-11-21T03:30:05;8.60;;;6.80;;
81841;SDS011;71284;50.918;7.092;2023-11-21T03:32:33;7.43;;;5.25;;
81841;SDS011;71284;50.918;7.092;2023-11-21T03:34:59;11.50;;;6.57;;
81841;SDS011;71284;50.918;7.092;2023-11-21T03:37:25;8.90;;;6.55;;
81841;SDS011;71284;50.918;7.092;2023-11-21T03:39:52;9.90;;;5.47;;
81841;SDS011;71284;50.918;7.092;2023-11-21T03:42:18;8.82;;;6.65;;
81841;SDS011;71284;50.918;7.092;2023-11-21T03:44:45;18.05;;;5.97;;
81841;SDS011;71284;50.918;7.092;2023-11-21T03:47:12;7.75;;;5.47;;
81841;SDS011;71284;50.918;7.092;2023-11-21T03:49:38;12.57;;;6.18;;
81841;SDS011;71284;50.918;7.092;2023-11-21T03:52:05;9.48;;;6.70;;
81841;SDS011;71284;50.918;7.092;2023-11-21T03:54:31;7.25;;;6.55;;
81841;SDS011;71284;50.918;7.092;2023-11-21T03:56:58;16.12;;;6.25;;
81841;SDS011;71284;50.918;7.092;2023-11-21T03:59:25;9.20;;;5.90;;
81841;SDS011;71284;50.918;7.092;2023-11-21T04:01:51;11.63;;;6.53;;
81841;SDS011;71284;50.918;7.092;2023-11-21T04:04:18;11.02;;;6.03;;
81841;SDS011;71284;50.918;7.092;2023-11-21T04:06:44;8.88;;;5.85;;
81841;SDS011;71284;50.918;7.092;2023-11-21T04:09:11;10.18;;;6.20;;
81841;SDS011;71284;50.918;7.092;2023-11-21T04:11:38;10.98;;;5.95;;
81841;SDS011;71284;50.918;7.092;2023-11-21T04:14:04;11.25;;;6.28;;
81841;SDS011;71284;50.918;7.092;2023-11-21T04:16:31;7.80;;;6.05;;
81841;SDS011;71284;50.918;7.092;2023-11-21T04:18:57;10.15;;;5.65;;
81841;SDS011;71284;50.918;7.092;2023-11-21T04:21:24;7.55;;;6.00;;
81841;SDS011;71284;50.918;7.092;2023-11-21T04:23:51;14.48;;;6.37;;
81841;SDS011;71284;50.918;7.092;2023-11-21T04:26:17;13.55;;;6.97;;
81841;SDS011;71284;50.918;7.092;2023-11-21T04:28:44;8.25;;;6.80;;
81841;SDS011;71284;50.918;7.092;2023-11-21T04:31:10;10.82;;;5.78;;
81841;SDS011;71284;50.918;7.092;2023-11-21T04:33:37;13.30;;;6.75;;
81841;SDS011;71284;50.918;7.092;2023-11-21T04:36:04;9.25;;;6.90;;
81841;SDS011;71284;50.918;7.092;2023-11-21T04:38:30;8.77;;;7.25;;
81841;SDS011;71284;50.918;7.092;2023-11-21T04:40:57;9.15;;;6.70;;
81841;SDS011;71284;50.918;7.092;2023-11-21T04:43:24;13.00;;;7.55;;
81841;SDS011;71284;50.918;7.092;2023-11-21T04:45:50;11.77;;;6.70;;
81841;SDS011;71284;50.918;7.092;2023-11-21T04:48:17;10.88;;;5.75;;
81841;SDS011;71284;50.918;7.092;2023-11-21T04:50:43;9.27;;;6.68;;
81841;SDS011;71284;50.918;7.092;2023-11-21T04:53:10;7.85;;;5.80;;
81841;SDS011;71284;50.918;7.092;2023-11-21T04:55:37;10.98;;;7.75;;
81841;SDS011;71284;50.918;7.092;2023-11-21T04:58:03;15.93;;;6.97;;
81841;SDS011;71284;50.918;7.092;2023-11-21T05:00:30;11.65;;;6.78;;
81841;SDS011;71284;50.918;7.092;2023-11-21T05:02:56;11.88;;;7.75;;
81841;SDS011;71284;50.918;7.092;2023-11-21T05:05:23;15.88;;;8.18;;
81841;SDS011;71284;50.918;7.092;2023-11-21T05:07:50;8.35;;;6.65;;
81841;SDS011;71284;50.918;7.092;2023-11-21T05:10:16;10.15;;;6.45;;
81841;SDS011;71284;50.918;7.092;2023-11-21T05:12:43;13.30;;;7.10;;
81841;SDS011;71284;50.918;7.092;2023-11-21T05:15:10;11.12;;;6.68;;
81841;SDS011;71284;50.918;7.092;2023-11-21T05:17:37;14.73;;;7.10;;
81841;SDS011;71284;50.918;7.092;2023-11-21T05:20:04;17.17;;;7.25;;
81841;SDS011;71284;50.918;7.092;2023-11-21T05:22:31;11.27;;;7.62;;
81841;SDS011;71284;50.918;7.092;2023-11-21T05:24:58;12.30;;;6.65;;
81841;SDS011;71284;50.918;7.092;2023-11-21T05:27:24;15.68;;;8.35;;
81841;SDS011;71284;50.918;7.092;2023-11-21T05:29:51;13.50;;;8.35;;
81841;SDS011;71284;50.918;7.092;2023-11-21T05:32:18;12.05;;;8.27;;
81841;SDS011;71284;50.918;7.092;2023-11-21T05:34:44;13.80;;;6.72;;
81841;SDS011;71284;50.918;7.092;2023-11-21T05:37:11;14.32;;;7.80;;
81841;SDS011;71284;50.918;7.092;2023-11-21T05:39:37;12.65;;;7.87;;
81841;SDS011;71284;50.918;7.092;2023-11-21T05:42:05;11.98;;;6.93;;
81841;SDS011;71284;50.918;7.092;2023-11-21T05:44:31;11.25;;;7.97;;
81841;SDS011;71284;50.918;7.092;2023-11-21T05:46:58;9.57;;;6.97;;
81841;SDS011;71284;50.918;7.092;2023-11-21T05:49:24;10.10;;;6.65;;
81841;SDS011;71284;50.918;7.092;2023-11-21T05:51:52;8.77;;;6.57;;
81841;SDS011;71284;50.918;7.092;2023-11-21T05:54:18;11.48;;;6.43;;
81841;SDS011;71284;50.918;7.092;2023-11-21T05:56:44;11.43;;;7.62;;
81841;SDS011;71284;50.918;7.092;2023-11-21T05:59:11;9.80;;;7.22;;
81841;SDS011;71284;50.918;7.092;2023-11-21T06:01:37;15.77;;;6.37;;
81841;SDS011;71284;50.918;7.092;2023-11-21T06:04:04;10.07;;;7.20;;
81841;SDS011;71284;50.918;7.092;2023-11-21T06:06:31;11.45;;;6.45;;
81841;SDS011;71284;50.918;7.092;2023-11-21T06:08:57;13.80;;;8.07;;
81841;SDS011;71284;50.918;7.092;2023-11-21T06:11:24;12.65;;;7.57;;
81841;SDS011;71284;50.918;7.092;2023-11-21T06:13:50;14.38;;;8.00;;
81841;SDS011;71284;50.918;7.092;2023-11-21T06:16:17;16.02;;;8.23;;
81841;SDS011;71284;50.918;7.092;2023-11-21T06:18:44;23.52;;;9.70;;
81841;SDS011;71284;50.918;7.092;2023-11-21T06:21:11;14.48;;;7.85;;
81841;SDS011;71284;50.918;7.092;2023-11-21T06:23:38;14.63;;;8.40;;
81841;SDS011;71284;50.918;7.092;2023-11-21T06:26:04;17.60;;;7.70;;
81841;SDS011;71284;50.918;7.092;2023-11-21T06:28:31;15.73;;;8.25;;
81841;SDS011;71284;50.918;7.092;2023-11-21T06:30:57;14.70;;;9.23;;
81841;SDS011;71284;50.918;7.092;2023-11-21T06:33:24;11.48;;;8.70;;
81841;SDS011;71284;50.918;7.092;2023-11-21T06:35:51;16.48;;;9.70;;
81841;SDS011;71284;50.918;7.092;2023-11-21T06:38:17;22.15;;;9.38;;
81841;SDS011;71284;50.918;7.092;2023-11-21T06:40:44;19.02;;;10.13;;
81841;SDS011;71284;50.918;7.092;2023-11-21T06:43:10;16.33;;;8.88;;
81841;SDS011;71284;50.918;7.092;2023-11-21T06:45:37;23.62;;;9.45;;
81841;SDS011;71284;50.918;7.092;2023-11-21T06:48:04;21.50;;;11.45;;
81841;SDS011;71284;50.918;7.092;2023-11-21T06:50:30;29.55;;;9.60;;
81841;SDS011;71284;50.918;7.092;2023-11-21T06:52:57;17.60;;;9.18;;
81841;SDS011;71284;50.918;7.092;2023-11-21T06:55:23;16.73;;;9.70;;
81841;SDS011;71284;50.918;7.092;2023-11-21T06:57:50;17.10;;;9.10;;
81841;SDS011;71284;50.918;7.092;2023-11-21T07:00:17;16.50;;;7.87;;
81841;SDS011;71284;50.918;7.092;2023-11-21T07:02:43;23.08;;;9.18;;
81841;SDS011;71284;50.918;7.092;2023-11-21T07:05:10;14.48;;;9.90;;
81841;SDS011;71284;50.918;7.092;2023-11-21T07:07:36;13.13;;;7.68;;
81841;SDS011;71284;50.918;7.092;2023-11-21T07:10:03;13.75;;;8.45;;
81841;SDS011;71284;50.918;7.092;2023-11-21T07:12:30;14.85;;;9.65;;
81841;SDS011;71284;50.918;7.092;2023-11-21T07:14:57;17.80;;;8.93;;
81841;SDS011;71284;50.918;7.092;2023-11-21T07:17:23;21.70;;;10.63;;
81841;SDS011;71284;50.918;7.092;2023-11-21T07:19:50;16.20;;;10.13;;
81841;SDS011;71284;50.918;7.092;2023-11-21T07:22:16;16.90;;;9.68;;
81841;SDS011;71284;50.918;7.092;2023-11-21T07:24:47;24.60;;;10.07;;
81841;SDS011;71284;50.918;7.092;2023-11-21T07:27:15;24.05;;;9.88;;
81841;SDS011;71284;50.918;7.092;2023-11-21T07:29:42;23.23;;;10.50;;
81841;SDS011;71284;50.918;7.092;2023-11-21T07:32:08;33.17;;;11.60;;
81841;SDS011;71284;50.918;7.092;2023-11-21T07:34:35;22.10;;;10.15;;
81841;SDS011;71284;50.918;7.092;2023-11-21T07:37:02;28.65;;;10.38;;
81841;SDS011;71284;50.918;7.092;2023-11-21T07:39:28;22.15;;;11.10;;
81841;SDS011;71284;50.918;7.092;2023-11-21T07:41:55;20.12;;;11.10;;
81841;SDS011;71284;50.918;7.092;2023-11-21T07:44:21;26.62;;;11.85;;
81841;SDS011;71284;50.918;7.092;2023-11-21T07:46:49;25.05;;;11.20;;
81841;SDS011;71284;50.918;7.092;2023-11-21T07:49:15;34.05;;;12.60;;
81841;SDS011;71284;50.918;7.092;2023-11-21T07:51:43;37.42;;;13.18;;
81841;SDS011;71284;50.918;7.092;2023-11-21T07:54:09;22.15;;;11.30;;
81841;SDS011;71284;50.918;7.092;2023-11-21T07:56:35;31.33;;;11.95;;
81841;SDS011;71284;50.918;7.092;2023-11-21T07:59:02;28.70;;;11.67;;
81841;SDS011;71284;50.918;7.092;2023-11-21T08:01:28;28.10;;;11.87;;
81841;SDS011;71284;50.918;7.092;2023-11-21T08:03:55;27.23;;;11.50;;
81841;SDS011;71284;50.918;7.092;2023-11-21T08:06:22;31.27;;;12.93;;
81841;SDS011;71284;50.918;7.092;2023-11-21T08:08:48;26.83;;;12.07;;
81841;SDS011;71284;50.918;7.092;2023-11-21T08:11:15;30.40;;;12.60;;
81841;SDS011;71284;50.918;7.092;2023-11-21T08:13:42;24.37;;;13.07;;
81841;SDS011;71284;50.918;7.092;2023-11-21T08:16:08;36.08;;;13.50;;
81841;SDS011;71284;50.918;7.092;2023-11-21T08:18:35;20.75;;;11.18;;
81841;SDS011;71284;50.918;7.092;2023-11-21T08:21:01;27.43;;;13.97;;
81841;SDS011;71284;50.918;7.092;2023-11-21T08:23:28;27.33;;;13.80;;
81841;SDS011;71284;50.918;7.092;2023-11-21T08:25:55;28.70;;;13.38;;
81841;SDS011;71284;50.918;7.092;2023-11-21T08:28:21;29.20;;;12.67;;
81841;SDS011;71284;50.918;7.092;2023-11-21T08:30:48;27.33;;;13.27;;
81841;SDS011;71284;50.918;7.092;2023-11-21T08:33:14;24.87;;;13.53;;
81841;SDS011;71284;50.918;7.092;2023-11-21T08:35:41;32.37;;;14.30;;
81841;SDS011;71284;50.918;7.092;2023-11-21T08:38:07;32.47;;;15.33;;
81841;SDS011;71284;50.918;7.092;2023-11-21T08:40:34;22.43;;;12.87;;
81841;SDS011;71284;50.918;7.092;2023-11-21T08:43:01;29.23;;;13.20;;
81841;SDS011;71284;50.918;7.092;2023-11-21T08:45:27;25.23;;;12.70;;
81841;SDS011;71284;50.918;7.092;2023-11-21T08:47:54;30.63;;;13.93;;
81841;SDS011;71284;50.918;7.092;2023-11-21T08:50:20;32.10;;;15.00;;
81841;SDS011;71284;50.918;7.092;2023-11-21T08:52:47;45.50;;;15.87;;
81841;SDS011;71284;50.918;7.092;2023-11-21T08:55:14;24.40;;;14.90;;
81841;SDS011;71284;50.918;7.092;2023-11-21T08:57:41;28.93;;;13.40;;
81841;SDS011;71284;50.918;7.092;2023-11-21T09:00:07;36.97;;;14.70;;
81841;SDS011;71284;50.918;7.092;2023-11-21T09:02:42;33.30;;;16.00;;
81841;SDS011;71284;50.918;7.092;2023-11-21T09:05:12;50.03;;;16.27;;
81841;SDS011;71284;50.918;7.092;2023-11-21T09:07:39;33.07;;;16.50;;
81841;SDS011;71284;50.918;7.092;2023-11-21T09:10:05;33.13;;;14.70;;
81841;SDS011;71284;50.918;7.092;2023-11-21T09:12:32;40.47;;;16.17;;
81841;SDS011;71284;50.918;7.092;2023-11-21T09:14:58;43.13;;;17.00;;
81841;SDS011;71284;50.918;7.092;2023-11-21T09:17:25;34.87;;;17.10;;
81841;SDS011;71284;50.918;7.092;2023-11-21T09:19:51;36.00;;;16.37;;
81841;SDS011;71284;50.918;7.092;2023-11-21T09:22:18;33.97;;;14.53;;
81841;SDS011;71284;50.918;7.092;2023-11-21T09:24:45;44.43;;;17.33;;
81841;SDS011;71284;50.918;7.092;2023-11-21T09:27:11;31.37;;;15.37;;
81841;SDS011;71284;50.918;7.092;2023-11-21T09:29:38;36.13;;;16.63;;
81841;SDS011;71284;50.918;7.092;2023-11-21T09:32:05;38.80;;;17.33;;
81841;SDS011;71284;50.918;7.092;2023-11-21T09:34:32;36.43;;;16.33;;
81841;SDS011;71284;50.918;7.092;2023-11-21T09:36:58;43.03;;;18.30;;
81841;SDS011;71284;50.918;7.092;2023-11-21T09:39:24;32.30;;;17.13;;
81841;SDS011;71284;50.918;7.092;2023-11-21T09:41:52;37.13;;;17.90;;
81841;SDS011;71284;50.918;7.092;2023-11-21T09:44:18;40.73;;;17.60;;
81841;SDS011;71284;50.918;7.092;2023-11-21T09:46:47;45.17;;;19.60;;
81841;SDS011;71284;50.918;7.092;2023-11-21T09:49:11;37.70;;;18.07;;
81841;SDS011;71284;50.918;7.092;2023-11-21T09:51:39;35.10;;;18.10;;
81841;SDS011;71284;50.918;7.092;2023-11-21T09:54:05;44.40;;;17.70;;
81841;SDS011;71284;50.918;7.092;2023-11-21T09:56:32;44.87;;;18.43;;
81841;SDS011;71284;50.918;7.092;2023-11-21T09:58:59;45.10;;;20.47;;
81841;SDS011;71284;50.918;7.092;2023-11-21T10:01:25;38.57;;;18.43;;
81841;SDS011;71284;50.918;7.092;2023-11-21T10:03:52;34.33;;;17.43;;
81841;SDS011;71284;50.918;7.092;2023-11-21T10:06:18;48.20;;;21.07;;
81841;SDS011;71284;50.918;7.092;2023-11-21T10:08:46;35.33;;;18.60;;
81841;SDS011;71284;50.918;7.092;2023-11-21T10:11:12;41.77;;;18.77;;
81841;SDS011;71284;50.918;7.092;2023-11-21T10:13:38;43.33;;;21.00;;
81841;SDS011;71284;50.918;7.092;2023-11-21T10:16:05;45.80;;;21.13;;
81841;SDS011;71284;50.918;7.092;2023-11-21T10:18:32;53.80;;;18.67;;
81841;SDS011;71284;50.918;7.092;2023-11-21T10:20:58;41.37;;;17.90;;
81841;SDS011;71284;50.918;7.092;2023-11-21T10:23:25;51.60;;;21.90;;
81841;SDS011;71284;50.918;7.092;2023-11-21T10:25:52;60.57;;;21.50;;
81841;SDS011;71284;50.918;7.092;2023-11-21T10:28:18;50.73;;;19.90;;
81841;SDS011;71284;50.918;7.092;2023-11-21T10:30:45;45.87;;;20.70;;
81841;SDS011;71284;50.918;7.092;2023-11-21T10:33:11;48.67;;;19.80;;
81841;SDS011;71284;50.918;7.092;2023-11-21T10:35:39;41.97;;;21.30;;
81841;SDS011;71284;50.918;7.092;2023-11-21T10:38:05;38.23;;;18.53;;
81841;SDS011;71284;50.918;7.092;2023-11-21T10:40:31;40.23;;;18.23;;
81841;SDS011;71284;50.918;7.092;2023-11-21T10:43:13;47.20;;;20.13;;
81841;SDS011;71284;50.918;7.092;2023-11-21T10:45:39;38.77;;;17.63;;
81841;SDS011;71284;50.918;7.092;2023-11-21T10:48:06;53.20;;;22.10;;
81841;SDS011;71284;50.918;7.092;2023-11-21T10:50:34;45.27;;;19.83;;
81841;SDS011;71284;50.918;7.092;2023-11-21T10:53:01;49.60;;;18.50;;
81841;SDS011;71284;50.918;7.092;2023-11-21T10:55:27;52.07;;;18.93;;
81841;SDS011;71284;50.918;7.092;2023-11-21T10:57:54;39.83;;;19.53;;
81841;SDS011;71284;50.918;7.092;2023-11-21T11:00:20;44.40;;;20.20;;
81841;SDS011;71284;50.918;7.092;2023-11-21T11:02:49;35.93;;;18.70;;
81841;SDS011;71284;50.918;7.092;2023-11-21T11:05:16;57.53;;;21.97;;
81841;SDS011;71284;50.918;7.092;2023-11-21T11:07:42;41.70;;;18.93;;
81841;SDS011;71284;50.918;7.092;2023-11-21T11:10:08;39.87;;;19.23;;
81841;SDS011;71284;50.918;7.092;2023-11-21T11:12:35;38.80;;;19.50;;
81841;SDS011;71284;50.918;7.092;2023-11-21T11:15:02;65.37;;;20.57;;
81841;SDS011;71284;50.918;7.092;2023-11-21T11:17:29;45.37;;;22.97;;
81841;SDS011;71284;50.918;7.092;2023-11-21T11:19:55;46.43;;;20.93;;
81841;SDS011;71284;50.918;7.092;2023-11-21T11:28:01;60.10;;;21.70;;
81841;SDS011;71284;50.918;7.092;2023-11-21T11:33:25;44.73;;;22.93;;
81841;SDS011;71284;50.918;7.092;2023-11-21T11:35:55;39.70;;;21.93;;
81841;SDS011;71284;50.918;7.092;2023-11-21T11:38:36;51.17;;;25.03;;
81841;SDS011;71284;50.918;7.092;2023-11-21T11:41:03;63.13;;;27.00;;
81841;SDS011;71284;50.918;7.092;2023-11-21T11:43:30;51.90;;;24.40;;
81841;SDS011;71284;50.918;7.092;2023-11-21T11:45:57;53.70;;;24.77;;
81841;SDS011;71284;50.918;7.092;2023-11-21T11:48:23;46.50;;;22.67;;
81841;SDS011;71284;50.918;7.092;2023-11-21T11:53:27;46.77;;;21.00;;
81841;SDS011;71284;50.918;7.092;2023-11-21T11:58:37;48.90;;;23.47;;
81841;SDS011;71284;50.918;7.092;2023-11-21T12:00:58;44.90;;;22.33;;
81841;SDS011;71284;50.918;7.092;2023-11-21T12:03:25;43.23;;;19.70;;
81841;SDS011;71284;50.918;7.092;2023-11-21T12:05:51;42.63;;;21.10;;
81841;SDS011;71284;50.918;7.092;2023-11-21T12:08:18;36.90;;;20.67;;
81841;SDS011;71284;50.918;7.092;2023-11-21T12:10:45;38.43;;;18.50;;
81841;SDS011;71284;50.918;7.092;2023-11-21T12:13:11;39.23;;;20.53;;
81841;SDS011;71284;50.918;7.092;2023-11-21T12:15:38;40.23;;;20.37;;
81841;SDS011;71284;50.918;7.092;2023-11-21T12:18:04;39.27;;;20.27;;
81841;SDS011;71284;50.918;7.092;2023-11-21T12:20:31;45.60;;;18.50;;
81841;SDS011;71284;50.918;7.092;2023-11-21T12:22:58;41.77;;;18.73;;
81841;SDS011;71284;50.918;7.092;2023-11-21T12:25:26;39.10;;;17.67;;
81841;SDS011;71284;50.918;7.092;2023-11-21T12:27:52;37.53;;;18.47;;
81841;SDS011;71284;50.918;7.092;2023-11-21T12:30:19;46.83;;;19.87;;
81841;SDS011;71284;50.918;7.092;2023-11-21T12:32:48;48.57;;;19.23;;
81841;SDS011;71284;50.918;7.092;2023-11-21T12:35:14;42.43;;;16.63;;
81841;SDS011;71284;50.918;7.092;2023-11-21T12:37:41;33.77;;;18.17;;
81841;SDS011;71284;50.918;7.092;2023-11-21T12:40:08;43.50;;;18.80;;
81841;SDS011;71284;50.918;7.092;2023-11-21T12:42:35;40.57;;;17.53;;
81841;SDS011;71284;50.918;7.092;2023-11-21T12:47:37;41.93;;;18.50;;
81841;SDS011;71284;50.918;7.092;2023-11-21T12:50:04;36.70;;;18.83;;
81841;SDS011;71284;50.918;7.092;2023-11-21T12:52:32;43.20;;;17.37;;
81841;SDS011;71284;50.918;7.092;2023-11-21T12:54:58;44.40;;;18.30;;
81841;SDS011;71284;50.918;7.092;2023-11-21T12:57:26;40.03;;;17.73;;
81841;SDS011;71284;50.918;7.092;2023-11-21T12:59:56;38.43;;;18.77;;
81841;SDS011;71284;50.918;7.092;2023-11-21T13:02:19;43.67;;;18.57;;
81841;SDS011;71284;50.918;7.092;2023-11-21T13:04:51;43.90;;;18.00;;
81841;SDS011;71284;50.918;7.092;2023-11-21T13:07:13;40.47;;;17.97;;
81841;SDS011;71284;50.918;7.092;2023-11-21T13:09:39;33.93;;;18.27;;
81841;SDS011;71284;50.918;7.092;2023-11-21T13:12:06;48.10;;;17.80;;
81841;SDS011;71284;50.918;7.092;2023-11-21T13:14:33;34.10;;;15.83;;
81841;SDS011;71284;50.918;7.092;2023-11-21T13:16:59;33.53;;;17.27;;
81841;SDS011;71284;50.918;7.092;2023-11-21T13:19:26;37.60;;;17.40;;
81841;SDS011;71284;50.918;7.092;2023-11-21T13:21:53;45.03;;;19.63;;
81841;SDS011;71284;50.918;7.092;2023-11-21T13:24:19;36.13;;;16.23;;
81841;SDS011;71284;50.918;7.092;2023-11-21T13:26:46;37.00;;;15.67;;
81841;SDS011;71284;50.918;7.092;2023-11-21T13:29:12;33.73;;;16.30;;
81841;SDS011;71284;50.918;7.092;2023-11-21T13:31:39;34.20;;;15.00;;
81841;SDS011;71284;50.918;7.092;2023-11-21T13:34:06;36.40;;;16.70;;
81841;SDS011;71284;50.918;7.092;2023-11-21T13:36:32;38.60;;;19.20;;
81841;SDS011;71284;50.918;7.092;2023-11-21T13:38:59;39.47;;;16.00;;
81841;SDS011;71284;50.918;7.092;2023-11-21T13:41:25;42.80;;;17.13;;
81841;SDS011;71284;50.918;7.092;2023-11-21T13:43:54;39.00;;;18.23;;
81841;SDS011;71284;50.918;7.092;2023-11-21T13:46:20;38.43;;;15.10;;
81841;SDS011;71284;50.918;7.092;2023-11-21T13:48:48;37.43;;;16.40;;
81841;SDS011;71284;50.918;7.092;2023-11-21T13:51:14;38.57;;;15.30;;
81841;SDS011;71284;50.918;7.092;2023-11-21T13:53:43;35.33;;;15.67;;
81841;SDS011;71284;50.918;7.092;2023-11-21T13:56:10;33.23;;;15.80;;
81841;SDS011;71284;50.918;7.092;2023-11-21T13:58:36;31.47;;;14.23;;
81841;SDS011;71284;50.918;7.092;2023-11-21T14:01:09;36.67;;;13.47;;
81841;SDS011;71284;50.918;7.092;2023-11-21T14:03:36;35.33;;;14.80;;
81841;SDS011;71284;50.918;7.092;2023-11-21T14:06:03;27.73;;;12.93;;
81841;SDS011;71284;50.918;7.092;2023-11-21T14:08:30;35.03;;;15.10;;
81841;SDS011;71284;50.918;7.092;2023-11-21T14:10:57;34.13;;;15.07;;
81841;SDS011;71284;50.918;7.092;2023-11-21T14:13:23;28.70;;;13.27;;
81841;SDS011;71284;50.918;7.092;2023-11-21T14:15:50;24.37;;;12.43;;
81841;SDS011;71284;50.918;7.092;2023-11-21T14:18:17;26.80;;;13.27;;
81841;SDS011;71284;50.918;7.092;2023-11-21T14:20:43;44.87;;;15.47;;
81841;SDS011;71284;50.918;7.092;2023-11-21T14:23:10;47.53;;;17.47;;
81841;SDS011;71284;50.918;7.092;2023-11-21T14:25:37;36.87;;;13.60;;
81841;SDS011;71284;50.918;7.092;2023-11-21T14:28:03;39.00;;;13.70;;
81841;SDS011;71284;50.918;7.092;2023-11-21T14:30:30;37.33;;;12.60;;
81841;SDS011;71284;50.918;7.092;2023-11-21T14:32:59;37.63;;;13.80;;
81841;SDS011;71284;50.918;7.092;2023-11-21T14:35:25;39.87;;;15.93;;
81841;SDS011;71284;50.918;7.092;2023-11-21T14:37:52;39.00;;;16.03;;
81841;SDS011;71284;50.918;7.092;2023-11-21T14:40:19;38.93;;;13.93;;
81841;SDS011;71284;50.918;7.092;2023-11-21T14:42:45;43.57;;;15.13;;
81841;SDS011;71284;50.918;7.092;2023-11-21T14:45:12;44.23;;;15.27;;
81841;SDS011;71284;50.918;7.092;2023-11-21T14:47:38;37.57;;;14.93;;